sensor_id;sensor_type;location;lat;lon;timestamp;temperature;humidity
74901;DHT22;63461;51.416;6.758;2024-01-30T00:01:05;9.20;99.90
74901;DHT22;63461;51.416;6.758;2024-01-30T00:03:31;9.20;99.90
74901;DHT22;63461;51.416;6.758;2024-01-30T00:05:57;9.20;99.90
74901;DHT22;63461;51.416;6.758;2024-01-30T00:08:23;9.20;99.90
74901;DHT22;63461;51.416;6.758;2024-01-30T00:10:48;9.20;99.90
74901;DHT22;63461;51.416;6.758;2024-01-30T00:13:14;9.10;99.90
74901;DHT22;63461;51.416;6.758;2024-01-30T00:15:43;9.10;99.90
74901;DHT22;63461;51.416;6.758;2024-01-30T00:18:08;9.10;99.90
74901;DHT22;63461;51.416;6.758;2024-01-30T00:20:34;9.10;99.90
74901;DHT22;63461;51.416;6.758;2024-01-30T00:23:00;9.10;99.90
74901;DHT22;63461;51.416;6.758;2024-01-30T00:25:27;9.10;99.90
74901;DHT22;63461;51.416;6.758;2024-01-30T00:27:53;9.10;99.90
74901;DHT22;63461;51.416;6.758;2024-01-30T00:30:19;9.10;99.90
74901;DHT22;63461;51.416;6.758;2024-01-30T00:32:45;9.10;99.90
74901;DHT22;63461;51.416;6.758;2024-01-30T00:35:11;9.10;99.90
74901;DHT22;63461;51.416;6.758;2024-01-30T00:37:37;9.10;99.90
74901;DHT22;63461;51.416;6.758;2024-01-30T00:40:03;9.10;99.90
74901;DHT22;63461;51.416;6.758;2024-01-30T00:42:29;9.10;99.90
74901;DHT22;63461;51.416;6.758;2024-01-30T00:44:55;9.00;99.90
74901;DHT22;63461;51.416;6.758;2024-01-30T00:47:21;9.00;99.90
74901;DHT22;63461;51.416;6.758;2024-01-30T00:49:46;9.00;99.90
74901;DHT22;63461;51.416;6.758;2024-01-30T00:52:12;9.00;99.90
74901;DHT22;63461;51.416;6.758;2024-01-30T00:54:38;9.00;99.90
74901;DHT22;63461;51.416;6.758;2024-01-30T00:57:04;9.00;99.90
74901;DHT22;63461;51.416;6.758;2024-01-30T00:59:30;9.00;99.90
74901;DHT22;63461;51.416;6.758;2024-01-30T01:01:55;9.00;99.90
74901;DHT22;63461;51.416;6.758;2024-01-30T01:04:21;9.00;99.90
74901;DHT22;63461;51.416;6.758;2024-01-30T01:06:47;9.00;99.90
74901;DHT22;63461;51.416;6.758;2024-01-30T01:09:13;9.00;99.90
74901;DHT22;63461;51.416;6.758;2024-01-30T01:11:39;9.00;99.90
74901;DHT22;63461;51.416;6.758;2024-01-30T01:14:05;9.00;99.90
74901;DHT22;63461;51.416;6.758;2024-01-30T01:16:31;9.00;99.90
74901;DHT22;63461;51.416;6.758;2024-01-30T01:18:56;9.00;99.90
74901;DHT22;63461;51.416;6.758;2024-01-30T01:21:22;9.00;99.90
74901;DHT22;63461;51.416;6.758;2024-01-30T01:23:48;9.00;99.90
74901;DHT22;63461;51.416;6.758;2024-01-30T01:26:14;9.00;99.90
74901;DHT22;63461;51.416;6.758;2024-01-30T01:28:43;9.00;99.90
74901;DHT22;63461;51.416;6.758;2024-01-30T01:31:09;9.00;99.90
74901;DHT22;63461;51.416;6.758;2024-01-30T01:33:35;9.00;99.90
74901;DHT22;63461;51.416;6.758;2024-01-30T01:36:02;9.00;99.90
74901;DHT22;63461;51.416;6.758;2024-01-30T01:38:28;9.00;99.90
74901;DHT22;63461;51.416;6.758;2024-01-30T01:40:54;9.00;99.90
74901;DHT22;63461;51.416;6.758;2024-01-30T01:43:20;9.00;99.90
74901;DHT22;63461;51.416;6.758;2024-01-30T01:45:46;9.00;99.90
74901;DHT22;63461;51.416;6.758;2024-01-30T01:48:12;9.00;99.90
74901;DHT22;63461;51.416;6.758;2024-01-30T01:50:38;9.00;99.90
74901;DHT22;63461;51.416;6.758;2024-01-30T01:53:07;9.00;99.90
74901;DHT22;63461;51.416;6.758;2024-01-30T01:55:35;9.00;99.90
74901;DHT22;63461;51.416;6.758;2024-01-30T01:58:01;9.00;99.90
74901;DHT22;63461;51.416;6.758;2024-01-30T02:00:27;8.90;99.90
74901;DHT22;63461;51.416;6.758;2024-01-30T02:02:54;8.90;99.90
74901;DHT22;63461;51.416;6.758;2024-01-30T02:05:21;9.00;99.90
74901;DHT22;63461;51.416;6.758;2024-01-30T02:07:47;8.90;99.90
74901;DHT22;63461;51.416;6.758;2024-01-30T02:10:13;8.90;99.90
74901;DHT22;63461;51.416;6.758;2024-01-30T02:12:40;8.90;99.90
74901;DHT22;63461;51.416;6.758;2024-01-30T02:15:06;8.90;99.90
74901;DHT22;63461;51.416;6.758;2024-01-30T02:17:33;8.90;99.90
74901;DHT22;63461;51.416;6.758;2024-01-30T02:19:59;8.90;99.90
74901;DHT22;63461;51.416;6.758;2024-01-30T02:22:25;8.90;99.90
74901;DHT22;63461;51.416;6.758;2024-01-30T02:24:51;8.90;99.90
74901;DHT22;63461;51.416;6.758;2024-01-30T02:27:17;8.90;99.90
74901;DHT22;63461;51.416;6.758;2024-01-30T02:29:42;8.80;99.90
74901;DHT22;63461;51.416;6.758;2024-01-30T02:32:08;8.90;99.90
74901;DHT22;63461;51.416;6.758;2024-01-30T02:34:34;8.90;99.90
74901;DHT22;63461;51.416;6.758;2024-01-30T02:37:00;8.90;99.90
74901;DHT22;63461;51.416;6.758;2024-01-30T02:39:25;8.80;99.90
74901;DHT22;63461;51.416;6.758;2024-01-30T02:41:51;8.80;99.90
74901;DHT22;63461;51.416;6.758;2024-01-30T02:44:17;8.80;99.90
74901;DHT22;63461;51.416;6.758;2024-01-30T02:46:43;8.80;99.90
74901;DHT22;63461;51.416;6.758;2024-01-30T02:49:09;8.80;99.90
74901;DHT22;63461;51.416;6.758;2024-01-30T02:51:34;8.90;99.90
74901;DHT22;63461;51.416;6.758;2024-01-30T02:54:00;8.90;99.90
74901;DHT22;63461;51.416;6.758;2024-01-30T02:56:26;8.90;99.90
74901;DHT22;63461;51.416;6.758;2024-01-30T02:58:51;8.90;99.90
74901;DHT22;63461;51.416;6.758;2024-01-30T03:01:17;8.80;99.90
74901;DHT22;63461;51.416;6.758;2024-01-30T03:03:43;8.80;99.90
74901;DHT22;63461;51.416;6.758;2024-01-30T03:06:09;8.80;99.90
74901;DHT22;63461;51.416;6.758;2024-01-30T03:08:35;8.80;99.90
74901;DHT22;63461;51.416;6.758;2024-01-30T03:11:05;8.80;99.90
74901;DHT22;63461;51.416;6.758;2024-01-30T03:13:31;8.80;99.90
74901;DHT22;63461;51.416;6.758;2024-01-30T03:15:57;8.80;99.90
74901;DHT22;63461;51.416;6.758;2024-01-30T03:18:23;8.80;99.90
74901;DHT22;63461;51.416;6.758;2024-01-30T03:20:48;8.80;99.90
74901;DHT22;63461;51.416;6.758;2024-01-30T03:23:14;8.80;99.90
74901;DHT22;63461;51.416;6.758;2024-01-30T03:25:40;8.80;99.90
74901;DHT22;63461;51.416;6.758;2024-01-30T03:28:06;8.80;99.90
74901;DHT22;63461;51.416;6.758;2024-01-30T03:30:33;8.80;99.90
74901;DHT22;63461;51.416;6.758;2024-01-30T03:32:59;8.80;99.90
74901;DHT22;63461;51.416;6.758;2024-01-30T03:35:25;8.80;99.90
74901;DHT22;63461;51.416;6.758;2024-01-30T03:37:51;8.80;99.90
74901;DHT22;63461;51.416;6.758;2024-01-30T03:40:17;8.80;99.90
74901;DHT22;63461;51.416;6.758;2024-01-30T03:42:42;8.70;99.90
74901;DHT22;63461;51.416;6.758;2024-01-30T03:45:08;8.70;99.90
74901;DHT22;63461;51.416;6.758;2024-01-30T03:47:34;8.70;99.90
74901;DHT22;63461;51.416;6.758;2024-01-30T03:50:00;8.70;99.90
74901;DHT22;63461;51.416;6.758;2024-01-30T03:52:26;8.70;99.90
74901;DHT22;63461;51.416;6.758;2024-01-30T03:54:51;8.70;99.90
74901;DHT22;63461;51.416;6.758;2024-01-30T03:57:17;8.60;99.90
74901;DHT22;63461;51.416;6.758;2024-01-30T03:59:43;8.60;99.90
74901;DHT22;63461;51.416;6.758;2024-01-30T04:02:10;8.60;99.90
74901;DHT22;63461;51.416;6.758;2024-01-30T04:04:37;8.70;99.90
74901;DHT22;63461;51.416;6.758;2024-01-30T04:07:03;8.70;99.90
74901;DHT22;63461;51.416;6.758;2024-01-30T04:09:28;8.70;99.90
74901;DHT22;63461;51.416;6.758;2024-01-30T04:11:54;8.60;99.90
74901;DHT22;63461;51.416;6.758;2024-01-30T04:14:20;8.60;99.90
74901;DHT22;63461;51.416;6.758;2024-01-30T04:16:46;8.60;99.90
74901;DHT22;63461;51.416;6.758;2024-01-30T04:19:12;8.60;99.90
74901;DHT22;63461;51.416;6.758;2024-01-30T04:21:37;8.60;99.90
74901;DHT22;63461;51.416;6.758;2024-01-30T04:24:03;8.60;99.90
74901;DHT22;63461;51.416;6.758;2024-01-30T04:26:29;8.60;99.90
74901;DHT22;63461;51.416;6.758;2024-01-30T04:28:55;8.60;99.90
74901;DHT22;63461;51.416;6.758;2024-01-30T04:31:21;8.60;99.90
74901;DHT22;63461;51.416;6.758;2024-01-30T04:33:46;8.60;99.90
74901;DHT22;63461;51.416;6.758;2024-01-30T04:36:12;8.50;99.90
74901;DHT22;63461;51.416;6.758;2024-01-30T04:38:38;8.50;99.90
74901;DHT22;63461;51.416;6.758;2024-01-30T04:41:05;8.50;99.90
74901;DHT22;63461;51.416;6.758;2024-01-30T04:43:30;8.50;99.90
74901;DHT22;63461;51.416;6.758;2024-01-30T04:45:56;8.50;99.90
74901;DHT22;63461;51.416;6.758;2024-01-30T04:48:22;8.50;99.90
74901;DHT22;63461;51.416;6.758;2024-01-30T04:50:48;8.50;99.90
74901;DHT22;63461;51.416;6.758;2024-01-30T04:53:13;8.50;99.90
74901;DHT22;63461;51.416;6.758;2024-01-30T04:55:39;8.50;99.90
74901;DHT22;63461;51.416;6.758;2024-01-30T04:58:05;8.50;99.90
74901;DHT22;63461;51.416;6.758;2024-01-30T05:00:31;8.60;99.90
74901;DHT22;63461;51.416;6.758;2024-01-30T05:02:56;8.50;99.90
74901;DHT22;63461;51.416;6.758;2024-01-30T05:05:22;8.60;99.90
74901;DHT22;63461;51.416;6.758;2024-01-30T05:07:48;8.50;99.90
74901;DHT22;63461;51.416;6.758;2024-01-30T05:10:14;8.60;99.90
74901;DHT22;63461;51.416;6.758;2024-01-30T05:12:40;8.60;99.90
74901;DHT22;63461;51.416;6.758;2024-01-30T05:15:06;8.60;99.90
74901;DHT22;63461;51.416;6.758;2024-01-30T05:17:32;8.60;99.90
74901;DHT22;63461;51.416;6.758;2024-01-30T05:19:58;8.70;99.90
74901;DHT22;63461;51.416;6.758;2024-01-30T05:22:24;8.60;99.90
74901;DHT22;63461;51.416;6.758;2024-01-30T05:24:50;8.70;99.90
74901;DHT22;63461;51.416;6.758;2024-01-30T05:27:16;8.60;99.90
74901;DHT22;63461;51.416;6.758;2024-01-30T05:29:41;8.70;99.90
74901;DHT22;63461;51.416;6.758;2024-01-30T05:32:07;8.60;99.90
74901;DHT22;63461;51.416;6.758;2024-01-30T05:34:33;8.60;99.90
74901;DHT22;63461;51.416;6.758;2024-01-30T05:36:59;8.60;99.90
74901;DHT22;63461;51.416;6.758;2024-01-30T05:39:24;8.60;99.90
74901;DHT22;63461;51.416;6.758;2024-01-30T05:41:50;8.60;99.90
74901;DHT22;63461;51.416;6.758;2024-01-30T05:44:16;8.60;99.90
74901;DHT22;63461;51.416;6.758;2024-01-30T05:46:42;8.60;99.90
74901;DHT22;63461;51.416;6.758;2024-01-30T05:49:08;8.60;99.90
74901;DHT22;63461;51.416;6.758;2024-01-30T05:51:33;8.60;99.90
74901;DHT22;63461;51.416;6.758;2024-01-30T05:53:59;8.60;99.90
74901;DHT22;63461;51.416;6.758;2024-01-30T05:56:25;8.60;99.90
74901;DHT22;63461;51.416;6.758;2024-01-30T05:58:51;8.60;99.90
74901;DHT22;63461;51.416;6.758;2024-01-30T06:01:16;8.60;99.90
74901;DHT22;63461;51.416;6.758;2024-01-30T06:03:43;8.60;99.90
74901;DHT22;63461;51.416;6.758;2024-01-30T06:06:09;8.60;99.90
74901;DHT22;63461;51.416;6.758;2024-01-30T06:08:35;8.60;99.90
74901;DHT22;63461;51.416;6.758;2024-01-30T06:11:01;8.60;99.90
74901;DHT22;63461;51.416;6.758;2024-01-30T06:13:27;8.60;99.90
74901;DHT22;63461;51.416;6.758;2024-01-30T06:15:52;8.70;99.90
74901;DHT22;63461;51.416;6.758;2024-01-30T06:18:18;8.70;99.90
74901;DHT22;63461;51.416;6.758;2024-01-30T06:20:44;8.70;99.90
74901;DHT22;63461;51.416;6.758;2024-01-30T06:23:10;8.70;99.90
74901;DHT22;63461;51.416;6.758;2024-01-30T06:25:36;8.70;99.90
74901;DHT22;63461;51.416;6.758;2024-01-30T06:28:02;8.70;99.90
74901;DHT22;63461;51.416;6.758;2024-01-30T06:30:27;8.70;99.90
74901;DHT22;63461;51.416;6.758;2024-01-30T06:32:53;8.70;99.90
74901;DHT22;63461;51.416;6.758;2024-01-30T06:35:19;8.80;99.90
74901;DHT22;63461;51.416;6.758;2024-01-30T06:37:45;8.80;99.90
74901;DHT22;63461;51.416;6.758;2024-01-30T06:40:11;8.70;99.90
74901;DHT22;63461;51.416;6.758;2024-01-30T06:42:37;8.80;99.90
74901;DHT22;63461;51.416;6.758;2024-01-30T06:45:03;8.70;99.90
74901;DHT22;63461;51.416;6.758;2024-01-30T06:47:29;8.80;99.90
74901;DHT22;63461;51.416;6.758;2024-01-30T06:49:56;8.70;99.90
74901;DHT22;63461;51.416;6.758;2024-01-30T06:52:22;8.80;99.90
74901;DHT22;63461;51.416;6.758;2024-01-30T06:54:48;8.80;99.90
74901;DHT22;63461;51.416;6.758;2024-01-30T06:57:13;8.90;99.90
74901;DHT22;63461;51.416;6.758;2024-01-30T06:59:40;8.80;99.90
74901;DHT22;63461;51.416;6.758;2024-01-30T07:02:10;8.80;99.90
74901;DHT22;63461;51.416;6.758;2024-01-30T07:04:36;8.90;99.90
74901;DHT22;63461;51.416;6.758;2024-01-30T07:07:05;8.80;99.90
74901;DHT22;63461;51.416;6.758;2024-01-30T07:09:31;8.80;99.90
74901;DHT22;63461;51.416;6.758;2024-01-30T07:11:57;8.80;99.90
74901;DHT22;63461;51.416;6.758;2024-01-30T07:14:26;8.90;99.90
74901;DHT22;63461;51.416;6.758;2024-01-30T07:16:51;8.90;99.90
74901;DHT22;63461;51.416;6.758;2024-01-30T07:19:17;8.90;99.90
74901;DHT22;63461;51.416;6.758;2024-01-30T07:21:43;8.90;99.90
74901;DHT22;63461;51.416;6.758;2024-01-30T07:24:09;8.90;99.90
74901;DHT22;63461;51.416;6.758;2024-01-30T07:26:40;8.90;99.90
74901;DHT22;63461;51.416;6.758;2024-01-30T07:29:06;8.90;99.90
74901;DHT22;63461;51.416;6.758;2024-01-30T07:31:32;8.90;99.90
74901;DHT22;63461;51.416;6.758;2024-01-30T07:33:58;8.90;99.90
74901;DHT22;63461;51.416;6.758;2024-01-30T07:36:24;8.90;99.90
74901;DHT22;63461;51.416;6.758;2024-01-30T07:38:49;8.90;99.90
74901;DHT22;63461;51.416;6.758;2024-01-30T07:41:15;8.90;99.90
74901;DHT22;63461;51.416;6.758;2024-01-30T07:43:41;8.90;99.90
74901;DHT22;63461;51.416;6.758;2024-01-30T07:46:06;8.90;99.90
74901;DHT22;63461;51.416;6.758;2024-01-30T07:48:33;8.90;99.90
74901;DHT22;63461;51.416;6.758;2024-01-30T07:50:59;8.90;99.90
74901;DHT22;63461;51.416;6.758;2024-01-30T07:53:25;9.00;99.90
74901;DHT22;63461;51.416;6.758;2024-01-30T08:03:13;9.00;99.90
74901;DHT22;63461;51.416;6.758;2024-01-30T08:05:42;9.10;99.90
74901;DHT22;63461;51.416;6.758;2024-01-30T08:08:07;9.10;99.90
74901;DHT22;63461;51.416;6.758;2024-01-30T08:10:33;9.10;99.90
74901;DHT22;63461;51.416;6.758;2024-01-30T08:12:59;9.10;99.90
74901;DHT22;63461;51.416;6.758;2024-01-30T08:15:25;9.20;99.90
74901;DHT22;63461;51.416;6.758;2024-01-30T08:17:50;9.20;99.90
74901;DHT22;63461;51.416;6.758;2024-01-30T08:20:21;9.20;99.90
74901;DHT22;63461;51.416;6.758;2024-01-30T08:22:47;9.20;99.90
74901;DHT22;63461;51.416;6.758;2024-01-30T08:25:12;9.30;99.90
74901;DHT22;63461;51.416;6.758;2024-01-30T08:27:38;9.30;99.90
74901;DHT22;63461;51.416;6.758;2024-01-30T08:30:06;9.30;99.90
74901;DHT22;63461;51.416;6.758;2024-01-30T08:32:32;9.30;99.90
74901;DHT22;63461;51.416;6.758;2024-01-30T08:34:58;9.30;99.90
74901;DHT22;63461;51.416;6.758;2024-01-30T08:37:24;9.40;99.90
74901;DHT22;63461;51.416;6.758;2024-01-30T08:39:49;9.40;99.90
74901;DHT22;63461;51.416;6.758;2024-01-30T08:42:15;9.40;99.90
74901;DHT22;63461;51.416;6.758;2024-01-30T08:44:44;9.40;99.90
74901;DHT22;63461;51.416;6.758;2024-01-30T08:47:09;9.40;99.90
74901;DHT22;63461;51.416;6.758;2024-01-30T08:49:35;9.40;99.90
74901;DHT22;63461;51.416;6.758;2024-01-30T08:52:01;9.40;99.90
74901;DHT22;63461;51.416;6.758;2024-01-30T08:54:27;9.50;99.90
74901;DHT22;63461;51.416;6.758;2024-01-30T08:56:52;9.50;99.90
74901;DHT22;63461;51.416;6.758;2024-01-30T08:59:18;9.50;99.90
74901;DHT22;63461;51.416;6.758;2024-01-30T09:01:44;9.50;99.90
74901;DHT22;63461;51.416;6.758;2024-01-30T09:04:10;9.50;99.90
74901;DHT22;63461;51.416;6.758;2024-01-30T09:06:36;9.50;99.90
74901;DHT22;63461;51.416;6.758;2024-01-30T09:09:05;9.60;99.90
74901;DHT22;63461;51.416;6.758;2024-01-30T09:11:31;9.60;99.90
74901;DHT22;63461;51.416;6.758;2024-01-30T09:13:57;9.60;99.90
74901;DHT22;63461;51.416;6.758;2024-01-30T09:16:22;9.60;99.90
74901;DHT22;63461;51.416;6.758;2024-01-30T09:18:48;9.70;99.90
74901;DHT22;63461;51.416;6.758;2024-01-30T09:21:14;9.70;99.90
74901;DHT22;63461;51.416;6.758;2024-01-30T09:23:40;9.70;99.90
74901;DHT22;63461;51.416;6.758;2024-01-30T09:26:05;9.80;99.90
74901;DHT22;63461;51.416;6.758;2024-01-30T09:28:31;9.80;99.90
74901;DHT22;63461;51.416;6.758;2024-01-30T09:30:57;9.90;99.90
74901;DHT22;63461;51.416;6.758;2024-01-30T09:33:23;9.90;99.90
74901;DHT22;63461;51.416;6.758;2024-01-30T09:35:48;9.90;99.90
74901;DHT22;63461;51.416;6.758;2024-01-30T09:38:14;9.90;99.90
74901;DHT22;63461;51.416;6.758;2024-01-30T09:40:40;10.00;99.90
74901;DHT22;63461;51.416;6.758;2024-01-30T09:43:07;10.00;99.90
74901;DHT22;63461;51.416;6.758;2024-01-30T09:45:33;10.10;99.90
74901;DHT22;63461;51.416;6.758;2024-01-30T09:48:01;10.10;99.90
74901;DHT22;63461;51.416;6.758;2024-01-30T09:50:27;10.20;99.90
74901;DHT22;63461;51.416;6.758;2024-01-30T09:52:55;10.20;99.90
74901;DHT22;63461;51.416;6.758;2024-01-30T09:55:21;10.20;99.90
74901;DHT22;63461;51.416;6.758;2024-01-30T09:57:47;10.30;99.90
74901;DHT22;63461;51.416;6.758;2024-01-30T10:00:13;10.30;99.90
74901;DHT22;63461;51.416;6.758;2024-01-30T10:02:40;10.40;99.90
74901;DHT22;63461;51.416;6.758;2024-01-30T10:05:07;10.40;99.90
74901;DHT22;63461;51.416;6.758;2024-01-30T10:07:33;10.50;99.90
74901;DHT22;63461;51.416;6.758;2024-01-30T10:10:00;10.50;99.90
74901;DHT22;63461;51.416;6.758;2024-01-30T10:12:26;10.60;99.90
74901;DHT22;63461;51.416;6.758;2024-01-30T10:14:52;10.60;99.90
74901;DHT22;63461;51.416;6.758;2024-01-30T10:17:18;10.70;99.90
74901;DHT22;63461;51.416;6.758;2024-01-30T10:19:47;10.60;99.90
74901;DHT22;63461;51.416;6.758;2024-01-30T10:22:12;10.60;99.90
74901;DHT22;63461;51.416;6.758;2024-01-30T10:24:38;10.70;99.90
74901;DHT22;63461;51.416;6.758;2024-01-30T10:27:05;10.60;99.90
74901;DHT22;63461;51.416;6.758;2024-01-30T10:29:31;10.60;99.90
74901;DHT22;63461;51.416;6.758;2024-01-30T10:32:01;10.60;99.90
74901;DHT22;63461;51.416;6.758;2024-01-30T10:34:27;10.70;99.90
74901;DHT22;63461;51.416;6.758;2024-01-30T10:37:10;10.80;99.90
74901;DHT22;63461;51.416;6.758;2024-01-30T10:39:42;10.80;99.90
74901;DHT22;63461;51.416;6.758;2024-01-30T10:42:18;10.90;99.90
74901;DHT22;63461;51.416;6.758;2024-01-30T10:44:57;10.90;99.90
74901;DHT22;63461;51.416;6.758;2024-01-30T10:47:29;11.00;99.90
74901;DHT22;63461;51.416;6.758;2024-01-30T10:49:55;11.00;99.90
74901;DHT22;63461;51.416;6.758;2024-01-30T10:52:23;11.00;99.90
74901;DHT22;63461;51.416;6.758;2024-01-30T10:54:51;11.00;99.90
74901;DHT22;63461;51.416;6.758;2024-01-30T10:57:18;11.10;99.90
74901;DHT22;63461;51.416;6.758;2024-01-30T10:59:45;11.10;99.90
74901;DHT22;63461;51.416;6.758;2024-01-30T11:02:13;11.10;99.90
74901;DHT22;63461;51.416;6.758;2024-01-30T11:04:43;11.10;99.90
74901;DHT22;63461;51.416;6.758;2024-01-30T11:07:23;11.20;99.90
74901;DHT22;63461;51.416;6.758;2024-01-30T11:12:24;11.30;99.90
74901;DHT22;63461;51.416;6.758;2024-01-30T11:20:26;11.50;99.90
74901;DHT22;63461;51.416;6.758;2024-01-30T11:22:54;11.40;99.90
74901;DHT22;63461;51.416;6.758;2024-01-30T11:25:21;11.40;99.90
74901;DHT22;63461;51.416;6.758;2024-01-30T11:27:50;11.40;99.90
74901;DHT22;63461;51.416;6.758;2024-01-30T11:30:29;11.40;99.90
74901;DHT22;63461;51.416;6.758;2024-01-30T11:42:27;11.30;99.90
74901;DHT22;63461;51.416;6.758;2024-01-30T11:45:20;11.30;99.90
74901;DHT22;63461;51.416;6.758;2024-01-30T11:51:32;11.30;99.90
74901;DHT22;63461;51.416;6.758;2024-01-30T11:57:34;11.30;99.90
74901;DHT22;63461;51.416;6.758;2024-01-30T12:00:21;11.30;99.90
74901;DHT22;63461;51.416;6.758;2024-01-30T12:02:55;11.40;99.90
74901;DHT22;63461;51.416;6.758;2024-01-30T12:05:24;11.40;99.90
74901;DHT22;63461;51.416;6.758;2024-01-30T12:07:51;11.40;99.90
74901;DHT22;63461;51.416;6.758;2024-01-30T12:10:17;11.50;99.90
74901;DHT22;63461;51.416;6.758;2024-01-30T12:12:50;11.50;99.90
74901;DHT22;63461;51.416;6.758;2024-01-30T12:15:16;11.40;99.90
74901;DHT22;63461;51.416;6.758;2024-01-30T12:17:43;11.50;99.90
74901;DHT22;63461;51.416;6.758;2024-01-30T12:20:10;11.50;99.90
74901;DHT22;63461;51.416;6.758;2024-01-30T12:22:38;11.50;99.90
74901;DHT22;63461;51.416;6.758;2024-01-30T12:25:14;11.50;99.90
74901;DHT22;63461;51.416;6.758;2024-01-30T12:27:42;11.50;99.90
74901;DHT22;63461;51.416;6.758;2024-01-30T12:30:09;11.50;99.90
74901;DHT22;63461;51.416;6.758;2024-01-30T12:32:36;11.60;99.90
74901;DHT22;63461;51.416;6.758;2024-01-30T12:35:03;11.50;99.90
74901;DHT22;63461;51.416;6.758;2024-01-30T12:37:30;11.50;99.90
74901;DHT22;63461;51.416;6.758;2024-01-30T12:39:56;11.50;99.90
74901;DHT22;63461;51.416;6.758;2024-01-30T12:42:22;11.50;99.90
74901;DHT22;63461;51.416;6.758;2024-01-30T12:44:48;11.50;99.90
74901;DHT22;63461;51.416;6.758;2024-01-30T12:47:14;11.50;99.90
74901;DHT22;63461;51.416;6.758;2024-01-30T12:49:43;11.50;99.90
74901;DHT22;63461;51.416;6.758;2024-01-30T12:52:10;11.50;99.90
74901;DHT22;63461;51.416;6.758;2024-01-30T12:54:36;11.50;99.90
74901;DHT22;63461;51.416;6.758;2024-01-30T12:57:02;11.50;99.90
74901;DHT22;63461;51.416;6.758;2024-01-30T12:59:28;11.50;99.90
74901;DHT22;63461;51.416;6.758;2024-01-30T13:01:53;11.50;99.90
74901;DHT22;63461;51.416;6.758;2024-01-30T13:04:19;11.50;99.90
74901;DHT22;63461;51.416;6.758;2024-01-30T13:06:45;11.50;99.90
74901;DHT22;63461;51.416;6.758;2024-01-30T13:09:11;11.50;99.90
74901;DHT22;63461;51.416;6.758;2024-01-30T13:11:37;11.50;99.90
74901;DHT22;63461;51.416;6.758;2024-01-30T13:14:03;11.60;99.90
74901;DHT22;63461;51.416;6.758;2024-01-30T13:16:29;11.60;99.90
74901;DHT22;63461;51.416;6.758;2024-01-30T13:18:55;11.60;99.90
74901;DHT22;63461;51.416;6.758;2024-01-30T13:21:21;11.60;99.90
74901;DHT22;63461;51.416;6.758;2024-01-30T13:23:47;11.60;99.90
74901;DHT22;63461;51.416;6.758;2024-01-30T13:26:12;11.70;99.90
74901;DHT22;63461;51.416;6.758;2024-01-30T13:28:38;11.70;99.90
74901;DHT22;63461;51.416;6.758;2024-01-30T13:31:04;11.70;99.90
74901;DHT22;63461;51.416;6.758;2024-01-30T13:33:32;11.80;99.90
74901;DHT22;63461;51.416;6.758;2024-01-30T13:35:57;11.80;99.90
74901;DHT22;63461;51.416;6.758;2024-01-30T13:38:24;11.80;99.90
74901;DHT22;63461;51.416;6.758;2024-01-30T13:40:50;11.80;99.90
74901;DHT22;63461;51.416;6.758;2024-01-30T13:43:15;11.80;99.90
74901;DHT22;63461;51.416;6.758;2024-01-30T13:45:43;11.90;99.90
74901;DHT22;63461;51.416;6.758;2024-01-30T13:48:08;11.90;99.90
74901;DHT22;63461;51.416;6.758;2024-01-30T13:50:34;11.90;99.90
74901;DHT22;63461;51.416;6.758;2024-01-30T13:53:02;11.80;99.90
74901;DHT22;63461;51.416;6.758;2024-01-30T13:55:27;11.90;99.90
74901;DHT22;63461;51.416;6.758;2024-01-30T13:57:53;11.90;99.90
74901;DHT22;63461;51.416;6.758;2024-01-30T14:00:19;11.90;99.90
74901;DHT22;63461;51.416;6.758;2024-01-30T14:02:48;12.00;99.90
74901;DHT22;63461;51.416;6.758;2024-01-30T14:05:13;12.00;99.90
74901;DHT22;63461;51.416;6.758;2024-01-30T14:07:40;12.10;99.90
74901;DHT22;63461;51.416;6.758;2024-01-30T14:10:10;12.10;99.90
74901;DHT22;63461;51.416;6.758;2024-01-30T14:12:36;12.10;99.90
74901;DHT22;63461;51.416;6.758;2024-01-30T14:15:02;12.10;99.90
74901;DHT22;63461;51.416;6.758;2024-01-30T14:17:28;12.00;99.90
74901;DHT22;63461;51.416;6.758;2024-01-30T14:19:54;12.00;99.90
74901;DHT22;63461;51.416;6.758;2024-01-30T14:22:19;12.10;99.90
74901;DHT22;63461;51.416;6.758;2024-01-30T14:24:45;12.00;99.90
74901;DHT22;63461;51.416;6.758;2024-01-30T14:27:12;12.10;99.90
74901;DHT22;63461;51.416;6.758;2024-01-30T14:29:37;12.10;99.90
74901;DHT22;63461;51.416;6.758;2024-01-30T14:32:04;12.00;99.90
74901;DHT22;63461;51.416;6.758;2024-01-30T14:34:30;12.00;99.90
74901;DHT22;63461;51.416;6.758;2024-01-30T14:36:55;12.00;99.90
74901;DHT22;63461;51.416;6.758;2024-01-30T14:39:22;11.90;99.90
74901;DHT22;63461;51.416;6.758;2024-01-30T14:41:47;11.90;99.90
74901;DHT22;63461;51.416;6.758;2024-01-30T14:44:14;11.90;99.90
74901;DHT22;63461;51.416;6.758;2024-01-30T14:46:40;11.90;99.90
74901;DHT22;63461;51.416;6.758;2024-01-30T14:49:06;11.90;99.90
74901;DHT22;63461;51.416;6.758;2024-01-30T14:51:33;11.80;99.90
74901;DHT22;63461;51.416;6.758;2024-01-30T14:53:59;11.80;99.90
74901;DHT22;63461;51.416;6.758;2024-01-30T14:56:26;11.70;99.90
74901;DHT22;63461;51.416;6.758;2024-01-30T14:58:52;11.80;99.90
74901;DHT22;63461;51.416;6.758;2024-01-30T15:01:18;11.80;99.90
74901;DHT22;63461;51.416;6.758;2024-01-30T15:03:44;11.80;99.90
74901;DHT22;63461;51.416;6.758;2024-01-30T15:06:14;11.80;99.90
74901;DHT22;63461;51.416;6.758;2024-01-30T15:08:40;11.80;99.90
74901;DHT22;63461;51.416;6.758;2024-01-30T15:11:06;11.70;99.90
74901;DHT22;63461;51.416;6.758;2024-01-30T15:13:31;11.70;99.90
74901;DHT22;63461;51.416;6.758;2024-01-30T15:15:58;11.70;99.90
74901;DHT22;63461;51.416;6.758;2024-01-30T15:18:24;11.60;99.90
74901;DHT22;63461;51.416;6.758;2024-01-30T15:20:49;11.50;99.90
74901;DHT22;63461;51.416;6.758;2024-01-30T15:23:15;11.50;99.90
74901;DHT22;63461;51.416;6.758;2024-01-30T15:25:42;11.40;99.90
74901;DHT22;63461;51.416;6.758;2024-01-30T15:28:08;11.40;99.90
74901;DHT22;63461;51.416;6.758;2024-01-30T15:30:35;11.30;99.90
74901;DHT22;63461;51.416;6.758;2024-01-30T15:33:01;11.20;99.90
74901;DHT22;63461;51.416;6.758;2024-01-30T15:35:27;11.20;99.90
74901;DHT22;63461;51.416;6.758;2024-01-30T15:37:53;11.20;99.90
74901;DHT22;63461;51.416;6.758;2024-01-30T15:40:19;11.10;99.90
74901;DHT22;63461;51.416;6.758;2024-01-30T15:42:46;11.10;99.90
74901;DHT22;63461;51.416;6.758;2024-01-30T15:45:11;11.10;99.90
74901;DHT22;63461;51.416;6.758;2024-01-30T15:47:37;11.00;99.90
74901;DHT22;63461;51.416;6.758;2024-01-30T15:50:04;10.90;99.90
74901;DHT22;63461;51.416;6.758;2024-01-30T15:52:30;10.90;99.90
74901;DHT22;63461;51.416;6.758;2024-01-30T15:55:15;10.90;99.90
74901;DHT22;63461;51.416;6.758;2024-01-30T15:58:00;10.90;99.90
74901;DHT22;63461;51.416;6.758;2024-01-30T16:00:45;10.80;99.90
74901;DHT22;63461;51.416;6.758;2024-01-30T16:03:30;10.80;99.90
74901;DHT22;63461;51.416;6.758;2024-01-30T16:05:56;10.70;99.90
74901;DHT22;63461;51.416;6.758;2024-01-30T16:08:22;10.70;99.90